createdAt,value
2019-05-30T00:00:24.047Z,96.94
2019-05-30T00:01:24.018Z,96.62
2019-05-30T00:02:24.099Z,97.09
2019-05-30T00:03:24.086Z,96.31
2019-05-30T00:04:23.970Z,96.36
2019-05-30T00:05:24.043Z,96.05
2019-05-30T00:06:23.951Z,96.78
2019-05-30T00:07:24.031Z,96.57
2019-05-30T00:08:23.931Z,96.67
2019-05-30T00:09:23.971Z,96.67
2019-05-30T00:10:23.922Z,96.36
2019-05-30T00:11:24.023Z,96.47
2019-05-30T00:12:23.895Z,96.57
2019-05-30T00:13:23.945Z,96.57
2019-05-30T00:14:23.875Z,96.88
2019-05-30T00:15:23.935Z,96.67
2019-05-30T00:16:23.846Z,96.67
2019-05-30T00:17:23.926Z,96.78
2019-05-30T00:18:23.826Z,97.13
2019-05-30T00:19:23.850Z,97.19
2019-05-30T00:20:23.814Z,97.19
2019-05-30T00:21:23.888Z,97.39
2019-05-30T00:22:23.778Z,96.57
2019-05-30T00:23:23.819Z,97.09
2019-05-30T00:24:23.752Z,96.20
2019-05-30T00:25:23.811Z,95.89
2019-05-30T00:26:23.732Z,96.09
2019-05-30T00:27:23.802Z,95.99
2019-05-30T00:28:23.726Z,95.99
2019-05-30T00:29:23.702Z,96.09
2019-05-30T00:30:24.958Z,96.92
2019-05-30T00:31:23.684Z,97.03
2019-05-30T00:32:23.733Z,96.82
2019-05-30T00:33:23.657Z,96.72
2019-05-30T00:34:23.733Z,96.92
2019-05-30T00:35:23.676Z,96.61
2019-05-30T00:36:23.620Z,96.76
2019-05-30T00:37:23.690Z,96.76
2019-05-30T00:38:23.597Z,96.66
2019-05-30T00:39:23.588Z,96.86
2019-05-30T00:40:23.637Z,96.66
2019-05-30T00:41:23.580Z,96.66
2019-05-30T00:42:23.647Z,96.86
2019-05-30T00:43:23.549Z,97.28
2019-05-30T00:44:23.540Z,97.69
2019-05-30T00:45:23.551Z,97.17
2019-05-30T00:46:23.591Z,97.43
2019-05-30T00:47:23.502Z,97.43
2019-05-30T00:48:23.533Z,97.53
2019-05-30T00:49:23.484Z,97.12
2019-05-30T00:50:23.533Z,97.33
2019-05-30T00:51:23.453Z,97.28
2019-05-30T00:52:23.497Z,97.43
2019-05-30T00:53:23.435Z,97.85
2019-05-30T00:54:23.425Z,97.85
2019-05-30T00:55:23.445Z,97.80
2019-05-30T00:56:23.418Z,97.53
2019-05-30T00:57:23.438Z,97.64
2019-05-30T00:58:23.387Z,97.22
2019-05-30T00:59:23.377Z,97.33
2019-05-30T01:00:41.628Z,96.86
2019-05-30T01:01:24.348Z,97.53
2019-05-30T01:02:23.369Z,97.07
2019-05-30T01:03:23.329Z,96.91
2019-05-30T01:04:23.346Z,97.33
2019-05-30T01:05:26.607Z,96.91
2019-05-30T01:06:23.354Z,96.39
2019-05-30T01:07:23.281Z,97.33
2019-05-30T01:08:23.387Z,97.43
2019-05-30T01:09:23.272Z,97.85
2019-05-30T01:10:23.373Z,97.64
2019-05-30T01:11:23.243Z,97.12
2019-05-30T01:12:23.255Z,96.91
2019-05-30T01:13:23.225Z,97.53
2019-05-30T01:14:23.296Z,97.33
2019-05-30T01:15:23.206Z,97.53
2019-05-30T01:16:23.286Z,97.53
2019-05-30T01:17:23.177Z,97.43
2019-05-30T01:18:23.267Z,98.05
2019-05-30T01:19:23.147Z,97.74
2019-05-30T01:20:23.138Z,97.69
2019-05-30T01:21:23.209Z,97.85
2019-05-30T01:22:23.119Z,97.85
2019-05-30T01:23:24.130Z,97.74
2019-05-30T01:24:23.110Z,97.64
2019-05-30T01:25:23.103Z,97.85
2019-05-30T01:26:23.161Z,97.85
2019-05-30T01:27:23.072Z,97.43
2019-05-30T01:28:23.152Z,97.95
2019-05-30T01:29:23.054Z,97.74
2019-05-30T01:30:23.051Z,97.64
2019-05-30T01:31:23.094Z,97.53
2019-05-30T01:32:23.005Z,97.58
2019-05-30T01:33:23.085Z,97.99
2019-05-30T01:34:22.986Z,97.68
2019-05-30T01:35:22.976Z,97.89
2019-05-30T01:36:22.976Z,97.89
2019-05-30T01:37:23.067Z,97.58
2019-05-30T01:38:22.948Z,97.89
2019-05-30T01:39:22.997Z,97.68
2019-05-30T01:40:22.934Z,97.93
2019-05-30T01:41:22.979Z,97.37
2019-05-30T01:42:22.912Z,97.89
2019-05-30T01:43:22.970Z,97.89
2019-05-30T01:44:22.892Z,97.89
2019-05-30T01:45:22.870Z,97.78
2019-05-30T01:46:22.872Z,97.68
2019-05-30T01:47:22.943Z,97.89
2019-05-30T01:48:22.832Z,97.83
2019-05-30T01:49:22.872Z,97.72
2019-05-30T01:50:22.843Z,97.93
2019-05-30T01:51:22.813Z,97.31
2019-05-30T01:52:22.891Z,98.03
2019-05-30T01:53:22.774Z,97.93
2019-05-30T01:54:22.826Z,97.83
2019-05-30T01:55:22.885Z,97.93
2019-05-30T01:56:22.836Z,97.93
2019-05-30T01:57:22.827Z,98.03
2019-05-30T01:58:22.729Z,97.72
2019-05-30T01:59:22.758Z,98.03
2019-05-30T02:00:22.718Z,97.72
2019-05-30T02:01:25.415Z,97.72
2019-05-30T02:02:22.770Z,98.14
2019-05-30T02:03:22.669Z,97.41
2019-05-30T02:04:22.690Z,97.77
2019-05-30T02:05:22.641Z,97.35
2019-05-30T02:06:22.681Z,98.08
2019-05-30T02:07:22.624Z,98.19
2019-05-30T02:08:22.678Z,97.98
2019-05-30T02:09:22.612Z,97.98
2019-05-30T02:10:22.603Z,97.77
2019-05-30T02:11:22.606Z,97.88
2019-05-30T02:12:22.646Z,97.88
2019-05-30T02:13:22.566Z,97.98
2019-05-30T02:14:22.586Z,97.88
2019-05-30T02:15:22.544Z,98.08
2019-05-30T02:16:22.560Z,98.39
2019-05-30T02:17:22.506Z,98.60
2019-05-30T02:18:22.548Z,98.50
2019-05-30T02:19:22.489Z,98.50
2019-05-30T02:20:22.588Z,98.19
2019-05-30T02:21:22.478Z,98.50
2019-05-30T02:22:22.520Z,98.39
2019-05-30T02:23:22.452Z,98.39
2019-05-30T02:24:22.460Z,97.77
2019-05-30T02:25:22.415Z,98.39
2019-05-30T02:26:22.436Z,98.29
2019-05-30T02:27:22.392Z,98.19
2019-05-30T02:28:22.425Z,98.50
2019-05-30T02:29:22.363Z,98.60
2019-05-30T02:30:22.463Z,98.71
2019-05-30T02:31:38.332Z,98.71
2019-05-30T02:32:23.357Z,98.81
2019-05-30T02:33:22.375Z,98.39
2019-05-30T02:34:22.305Z,98.19
2019-05-30T02:35:22.411Z,98.33
2019-05-30T02:36:22.303Z,97.98
2019-05-30T02:37:22.387Z,97.98
2019-05-30T02:38:22.297Z,97.92
2019-05-30T02:39:22.270Z,98.02
2019-05-30T02:40:22.258Z,97.81
2019-05-30T02:41:22.320Z,97.61
2019-05-30T02:42:22.269Z,97.81
2019-05-30T02:43:22.250Z,97.71
2019-05-30T02:44:22.201Z,97.55
2019-05-30T02:45:22.283Z,97.40
2019-05-30T02:46:22.171Z,97.44
2019-05-30T02:47:22.710Z,97.71
2019-05-30T02:48:22.293Z,98.17
2019-05-30T02:49:22.149Z,97.65
2019-05-30T02:50:24.165Z,97.86
2019-05-30T02:51:22.125Z,98.07
2019-05-30T02:52:22.148Z,98.07
2019-05-30T02:53:22.124Z,98.07
2019-05-30T02:54:22.111Z,98.38
2019-05-30T02:55:22.178Z,97.75
2019-05-30T02:56:22.078Z,98.48
2019-05-30T02:57:22.093Z,98.02
2019-05-30T02:58:22.050Z,98.27
2019-05-30T02:59:22.161Z,98.38
2019-05-30T03:00:22.029Z,98.27
2019-05-30T03:01:22.094Z,98.59
2019-05-30T03:02:22.089Z,97.86
2019-05-30T03:03:21.993Z,98.07
2019-05-30T03:04:22.081Z,97.86
2019-05-30T03:05:21.972Z,98.17
2019-05-30T03:06:22.018Z,98.38
2019-05-30T03:07:21.979Z,98.38
2019-05-30T03:08:21.954Z,98.90
2019-05-30T03:09:21.934Z,99.11
2019-05-30T03:10:21.995Z,98.27
2019-05-30T03:11:21.928Z,98.27
2019-05-30T03:12:21.925Z,98.17
2019-05-30T03:13:21.901Z,98.27
2019-05-30T03:14:21.972Z,99.11
2019-05-30T03:15:21.856Z,98.48
2019-05-30T03:16:21.898Z,97.96
2019-05-30T03:17:21.838Z,98.38
2019-05-30T03:18:21.838Z,98.38
2019-05-30T03:19:22.936Z,99.11
2019-05-30T03:20:23.394Z,99.01
2019-05-30T03:21:21.844Z,99.01
2019-05-30T03:22:21.791Z,98.17
2019-05-30T03:23:21.791Z,98.07
2019-05-30T03:24:21.765Z,98.59
2019-05-30T03:25:21.812Z,98.38
2019-05-30T03:26:21.742Z,98.27
2019-05-30T03:27:21.771Z,98.07
2019-05-30T03:28:21.757Z,98.32
2019-05-30T03:29:21.704Z,98.38
2019-05-30T03:30:28.123Z,97.96
2019-05-30T03:31:28.840Z,98.48
2019-05-30T03:33:01.698Z,98.38
2019-05-30T03:33:38.175Z,98.07
2019-05-30T03:34:28.371Z,98.27
2019-05-30T03:35:29.514Z,99.01
2019-05-30T03:36:29.862Z,98.90
2019-05-30T03:37:29.338Z,98.27
2019-05-30T03:38:22.673Z,97.96
2019-05-30T03:39:21.599Z,97.96
2019-05-30T03:40:23.480Z,98.07
2019-05-30T03:41:21.579Z,98.17
2019-05-30T03:42:21.661Z,98.38
2019-05-30T03:43:21.561Z,98.17
2019-05-30T03:44:21.531Z,98.17
2019-05-30T03:45:21.523Z,98.38
2019-05-30T03:46:21.536Z,98.38
2019-05-30T03:47:21.493Z,98.44
2019-05-30T03:48:21.615Z,98.69
2019-05-30T03:49:21.544Z,99.01
2019-05-30T03:50:21.467Z,99.01
2019-05-30T03:51:21.475Z,99.06
2019-05-30T03:52:21.455Z,98.65
2019-05-30T03:53:21.567Z,98.27
2019-05-30T03:54:21.493Z,98.85
2019-05-30T03:55:21.420Z,98.23
2019-05-30T03:56:21.407Z,98.85
2019-05-30T03:57:21.390Z,99.06
2019-05-30T03:58:21.498Z,99.16
2019-05-30T03:59:21.357Z,99.06
2019-05-30T04:00:21.388Z,98.54
2019-05-30T04:01:21.340Z,98.85
2019-05-30T04:02:21.433Z,98.81
2019-05-30T04:03:21.331Z,99.02
2019-05-30T04:04:21.372Z,98.81
2019-05-30T04:05:21.302Z,99.02
2019-05-30T04:06:21.404Z,98.81
2019-05-30T04:07:21.282Z,98.29
2019-05-30T04:08:21.383Z,98.19
2019-05-30T04:09:24.532Z,98.29
2019-05-30T04:10:21.260Z,97.35
2019-05-30T04:11:21.345Z,97.88
2019-05-30T04:12:21.215Z,97.35
2019-05-30T04:13:22.236Z,97.40
2019-05-30T04:14:21.194Z,97.19
2019-05-30T04:15:21.186Z,97.50
2019-05-30T04:16:21.278Z,97.50
2019-05-30T04:17:21.158Z,97.19
2019-05-30T04:18:21.282Z,97.92
2019-05-30T04:19:21.148Z,97.71
2019-05-30T04:20:23.218Z,97.88
2019-05-30T04:21:21.774Z,97.98
2019-05-30T04:22:21.113Z,97.35
2019-05-30T04:23:21.159Z,97.77
2019-05-30T04:24:21.110Z,97.77
2019-05-30T04:25:21.089Z,97.45
2019-05-30T04:26:21.072Z,97.56
2019-05-30T04:27:21.125Z,97.93
2019-05-30T04:28:21.031Z,97.31
2019-05-30T04:29:21.115Z,97.10
2019-05-30T04:30:21.013Z,97.67
2019-05-30T04:31:21.097Z,96.94
2019-05-30T04:32:20.993Z,97.77
2019-05-30T04:33:32.325Z,97.41
2019-05-30T04:34:21.987Z,97.20
2019-05-30T04:35:21.076Z,97.31
2019-05-30T04:36:20.957Z,97.41
2019-05-30T04:37:21.015Z,97.41
2019-05-30T04:38:21.027Z,97.41
2019-05-30T04:39:20.987Z,97.41
2019-05-30T04:40:20.910Z,98.03
2019-05-30T04:41:21.139Z,97.41
2019-05-30T04:42:20.968Z,97.41
2019-05-30T04:43:20.914Z,98.03
2019-05-30T04:44:20.900Z,97.78
2019-05-30T04:45:27.403Z,97.72
2019-05-30T04:46:22.212Z,96.95
2019-05-30T04:47:21.006Z,97.37
2019-05-30T04:48:21.435Z,97.16
2019-05-30T04:49:21.609Z,96.75
2019-05-30T04:50:20.904Z,97.16
2019-05-30T04:51:21.652Z,97.16
2019-05-30T04:52:24.426Z,97.16
2019-05-30T04:53:21.179Z,96.54
2019-05-30T04:54:21.372Z,97.16
2019-05-30T04:55:23.039Z,96.02
2019-05-30T04:56:21.952Z,96.23
2019-05-30T04:57:25.637Z,96.33
2019-05-30T04:58:24.125Z,96.23
2019-05-30T04:59:22.035Z,96.29
2019-05-30T05:00:21.493Z,95.87
2019-05-30T05:01:22.163Z,96.02
2019-05-30T05:02:23.055Z,95.92
2019-05-30T05:03:43.436Z,96.02
2019-05-30T05:04:21.939Z,95.77
2019-05-30T05:05:26.308Z,95.77
2019-05-30T05:06:22.104Z,96.19
2019-05-30T05:07:22.050Z,96.29
2019-05-30T05:08:21.976Z,96.19
2019-05-30T05:09:22.176Z,95.67
2019-05-30T05:10:22.329Z,95.93
2019-05-30T05:11:23.593Z,95.98
2019-05-30T05:12:20.555Z,95.98
2019-05-30T05:13:20.553Z,95.25
2019-05-30T05:14:20.667Z,95.62
2019-05-30T05:15:20.777Z,95.83
2019-05-30T05:16:30.797Z,95.72
2019-05-30T05:17:22.962Z,95.83
2019-05-30T05:18:21.107Z,95.41
2019-05-30T05:19:22.173Z,95.51
2019-05-30T05:20:21.414Z,95.72
2019-05-30T05:21:21.035Z,95.72
2019-05-30T05:22:21.173Z,95.37
2019-05-30T05:23:21.338Z,95.78
2019-05-30T05:24:21.443Z,95.26
2019-05-30T05:25:20.446Z,95.47
2019-05-30T05:26:21.566Z,95.57
2019-05-30T05:27:20.381Z,95.78
2019-05-30T05:28:20.475Z,95.78
2019-05-30T05:29:20.364Z,95.53
2019-05-30T05:30:20.413Z,95.84
2019-05-30T05:31:20.440Z,95.74
2019-05-30T05:32:20.500Z,95.84
2019-05-30T05:33:20.629Z,95.84
2019-05-30T05:34:21.354Z,95.90
2019-05-30T05:35:20.863Z,95.70
2019-05-30T05:36:20.962Z,95.59
2019-05-30T05:37:21.151Z,95.59
2019-05-30T05:38:20.257Z,95.90
2019-05-30T05:39:20.377Z,95.39
2019-05-30T05:40:20.239Z,95.34
2019-05-30T05:41:20.278Z,95.34
2019-05-30T05:42:20.346Z,95.29
2019-05-30T05:43:20.350Z,95.29
2019-05-30T05:44:20.400Z,95.29
2019-05-30T05:45:20.526Z,95.40
2019-05-30T05:46:20.396Z,95.67
2019-05-30T05:47:20.501Z,95.56
2019-05-30T05:48:20.461Z,95.36
2019-05-30T05:49:22.527Z,95.10
2019-05-30T05:50:20.497Z,95.10
2019-05-30T05:51:20.767Z,95.31
2019-05-30T05:52:20.705Z,95.37
2019-05-30T05:53:20.862Z,95.22
2019-05-30T05:54:20.898Z,94.87
2019-05-30T05:55:20.856Z,95.06
2019-05-30T05:56:20.847Z,90.91
2019-05-30T05:57:20.788Z,86.73
2019-05-30T05:58:20.905Z,81.63
2019-05-30T05:59:20.971Z,74.72
2019-05-30T06:00:21.275Z,70.86
2019-05-30T06:01:21.412Z,68.73
2019-05-30T06:02:21.103Z,65.86
2019-05-30T06:03:20.399Z,62.96
2019-05-30T06:04:21.010Z,60.14
2019-05-30T06:05:20.232Z,57.94
2019-05-30T06:06:21.189Z,55.16
2019-05-30T06:07:20.306Z,53.60
2019-05-30T06:08:19.921Z,52.14
2019-05-30T06:09:20.822Z,50.98
2019-05-30T06:10:19.906Z,50.93
2019-05-30T06:11:20.530Z,49.51
2019-05-30T06:12:19.875Z,48.55
2019-05-30T06:13:20.766Z,47.31
2019-05-30T06:14:19.997Z,47.28
2019-05-30T06:15:20.816Z,46.26
2019-05-30T06:16:19.974Z,45.51
2019-05-30T06:17:21.114Z,44.97
2019-05-30T06:18:20.235Z,44.05
2019-05-30T06:19:21.086Z,44.05
2019-05-30T06:20:19.870Z,44.13
2019-05-30T06:21:19.778Z,44.73
2019-05-30T06:22:19.859Z,42.93
2019-05-30T06:23:19.769Z,43.05
2019-05-30T06:24:19.780Z,43.33
2019-05-30T06:25:22.271Z,42.61
2019-05-30T06:26:20.033Z,42.91
2019-05-30T06:27:20.115Z,42.57
2019-05-30T06:28:19.997Z,42.65
2019-05-30T06:29:20.141Z,40.74
2019-05-30T06:30:20.393Z,41.12
2019-05-30T06:31:20.316Z,40.68
2019-05-30T06:32:20.905Z,40.48
2019-05-30T06:33:20.574Z,39.86
2019-05-30T06:34:30.257Z,40.84
2019-05-30T06:35:21.405Z,41.66
2019-05-30T06:36:20.855Z,39.75
2019-05-30T06:37:19.669Z,40.84
2019-05-30T06:38:19.577Z,41.44
2019-05-30T06:39:21.313Z,41.04
2019-05-30T06:40:19.571Z,38.42
2019-05-30T06:41:19.540Z,38.40
2019-05-30T06:42:19.602Z,38.09
2019-05-30T06:43:19.896Z,36.77
2019-05-30T06:44:19.860Z,35.41
2019-05-30T06:45:21.010Z,36.32
2019-05-30T06:46:20.126Z,35.67
2019-05-30T06:47:20.156Z,37.30
2019-05-30T06:48:20.624Z,36.52
2019-05-30T06:49:20.596Z,38.61
2019-05-30T06:50:20.610Z,37.49
2019-05-30T06:51:20.875Z,36.40
2019-05-30T06:52:20.783Z,40.64
2019-05-30T06:53:19.457Z,37.34
2019-05-30T06:54:19.397Z,39.11
2019-05-30T06:55:19.498Z,36.63
2019-05-30T06:56:19.388Z,37.13
2019-05-30T06:57:19.442Z,36.61
2019-05-30T06:58:19.351Z,36.02
2019-05-30T06:59:19.372Z,37.39
2019-05-30T07:00:19.339Z,34.31
2019-05-30T07:01:19.465Z,35.14
2019-05-30T07:02:19.358Z,33.75
2019-05-30T07:03:19.469Z,35.17
2019-05-30T07:04:19.673Z,35.26
2019-05-30T07:05:20.035Z,36.02
2019-05-30T07:06:19.697Z,34.40
2019-05-30T07:07:19.472Z,34.36
2019-05-30T07:08:19.287Z,32.98
2019-05-30T07:09:19.237Z,32.35
2019-05-30T07:10:19.317Z,33.52
2019-05-30T07:11:19.239Z,31.93
2019-05-30T07:12:19.988Z,33.42
2019-05-30T07:13:19.230Z,30.74
2019-05-30T07:14:19.190Z,31.70
2019-05-30T07:15:19.261Z,32.18
2019-05-30T07:16:19.171Z,33.33
2019-05-30T07:17:19.153Z,29.86
2019-05-30T07:18:19.245Z,29.38
2019-05-30T07:19:19.233Z,30.16
2019-05-30T07:20:19.114Z,29.65
2019-05-30T07:21:19.214Z,28.65
2019-05-30T07:22:19.086Z,28.64
2019-05-30T07:23:19.086Z,28.44
2019-05-30T07:24:19.176Z,28.26
2019-05-30T07:25:19.067Z,29.06
2019-05-30T07:26:19.168Z,27.59
2019-05-30T07:27:19.041Z,27.89
2019-05-30T07:28:19.019Z,26.89
2019-05-30T07:29:19.109Z,26.99
2019-05-30T07:30:19.000Z,29.11
2019-05-30T07:31:19.091Z,28.20
2019-05-30T07:32:18.972Z,30.79
2019-05-30T07:33:18.962Z,29.99
2019-05-30T07:34:18.966Z,31.18
2019-05-30T07:35:19.033Z,29.85
2019-05-30T07:36:18.945Z,32.22
2019-05-30T07:37:19.015Z,28.66
2019-05-30T07:38:18.916Z,30.05
2019-05-30T07:39:18.996Z,28.37
2019-05-30T07:40:19.880Z,30.02
2019-05-30T07:41:18.929Z,29.82
2019-05-30T07:42:18.895Z,29.05
2019-05-30T07:43:18.970Z,28.97
2019-05-30T07:44:18.942Z,28.48
2019-05-30T07:45:18.832Z,28.79
2019-05-30T07:46:18.881Z,29.97
2019-05-30T07:47:18.851Z,27.97
2019-05-30T07:48:18.912Z,27.67
2019-05-30T07:49:18.884Z,29.41
2019-05-30T07:50:18.786Z,28.30
2019-05-30T07:51:19.845Z,27.44
2019-05-30T07:52:18.784Z,27.83
2019-05-30T07:53:18.855Z,27.11
2019-05-30T07:54:18.738Z,27.69
2019-05-30T07:55:18.757Z,27.59
2019-05-30T07:56:18.758Z,26.42
2019-05-30T07:57:18.719Z,26.99
2019-05-30T07:58:18.801Z,25.56
2019-05-30T07:59:18.689Z,25.83
2019-05-30T08:00:18.680Z,26.03
2019-05-30T08:01:18.664Z,25.08
2019-05-30T08:02:18.713Z,26.21
2019-05-30T08:03:18.645Z,28.12
2019-05-30T08:04:18.702Z,27.11
2019-05-30T08:05:23.990Z,27.24
2019-05-30T08:06:19.594Z,26.92
2019-05-30T08:07:18.658Z,27.87
2019-05-30T08:08:18.575Z,27.36
2019-05-30T08:09:18.646Z,28.24
2019-05-30T08:10:18.556Z,24.99
2019-05-30T08:11:18.587Z,25.93
2019-05-30T08:12:18.558Z,27.17
2019-05-30T08:13:18.619Z,27.29
2019-05-30T08:14:18.523Z,27.87
2019-05-30T08:15:18.550Z,27.84
2019-05-30T08:16:18.502Z,30.07
2019-05-30T08:17:18.534Z,26.79
2019-05-30T08:18:18.463Z,26.09
2019-05-30T08:19:18.523Z,26.39
2019-05-30T08:20:18.452Z,27.15
2019-05-30T08:21:18.434Z,26.14
2019-05-30T08:22:18.485Z,25.68
2019-05-30T08:23:18.431Z,26.40
2019-05-30T08:24:18.467Z,25.89
2019-05-30T08:25:18.400Z,25.89
2019-05-30T08:26:18.530Z,27.30
2019-05-30T08:27:18.378Z,27.70
2019-05-30T08:28:18.494Z,27.01
2019-05-30T08:29:18.350Z,27.61
2019-05-30T08:30:18.382Z,27.81
2019-05-30T08:31:18.341Z,26.21
2019-05-30T08:32:18.311Z,28.30
2019-05-30T08:33:21.360Z,28.06
2019-05-30T08:34:18.303Z,27.71
2019-05-30T08:35:18.324Z,26.90
2019-05-30T08:36:18.277Z,25.70
2019-05-30T08:37:18.356Z,24.02
2019-05-30T08:38:18.276Z,23.93
2019-05-30T08:39:18.287Z,23.14
2019-05-30T08:40:18.227Z,25.94
2019-05-30T08:41:18.346Z,26.57
2019-05-30T08:42:18.199Z,27.62
2019-05-30T08:43:18.333Z,27.59
2019-05-30T08:44:18.181Z,23.96
2019-05-30T08:45:18.201Z,26.04
2019-05-30T08:46:18.171Z,24.87
2019-05-30T08:47:18.163Z,25.79
2019-05-30T08:48:18.166Z,26.08
2019-05-30T08:49:18.173Z,25.67
2019-05-30T08:50:18.124Z,25.27
2019-05-30T08:51:18.205Z,26.50
2019-05-30T08:52:18.175Z,26.51
2019-05-30T08:53:18.101Z,27.44
2019-05-30T08:54:18.110Z,26.47
2019-05-30T08:55:18.047Z,28.97
2019-05-30T08:56:18.148Z,23.74
2019-05-30T08:57:18.049Z,23.43
2019-05-30T08:58:18.145Z,23.22
2019-05-30T08:59:18.030Z,24.97
2019-05-30T09:00:18.022Z,24.85
2019-05-30T09:01:18.002Z,26.06
2019-05-30T09:02:18.067Z,23.30
2019-05-30T09:03:18.013Z,22.71
2019-05-30T09:04:17.993Z,23.63
2019-05-30T09:05:17.946Z,23.94
2019-05-30T09:06:18.037Z,24.26
2019-05-30T09:07:17.925Z,24.73
2019-05-30T09:08:17.926Z,25.85
2019-05-30T09:09:17.940Z,23.15
2019-05-30T09:10:17.913Z,22.25
2019-05-30T09:11:17.979Z,21.57
2019-05-30T09:12:17.879Z,22.38
2019-05-30T09:13:17.891Z,23.15
2019-05-30T09:14:17.861Z,23.11
2019-05-30T09:15:21.725Z,21.45
2019-05-30T09:16:17.837Z,21.53
2019-05-30T09:17:17.882Z,20.09
2019-05-30T09:18:17.853Z,22.53
2019-05-30T09:19:17.816Z,23.82
2019-05-30T09:20:17.885Z,22.91
2019-05-30T09:21:17.785Z,22.91
2019-05-30T09:22:17.827Z,23.16
2019-05-30T09:23:17.756Z,21.64
2019-05-30T09:24:17.848Z,20.39
2019-05-30T09:25:17.737Z,22.47
2019-05-30T09:26:17.788Z,22.27
2019-05-30T09:27:17.731Z,23.94
2019-05-30T09:28:17.731Z,23.05
2019-05-30T09:29:17.700Z,22.25
2019-05-30T09:30:17.788Z,21.20
2019-05-30T09:31:17.676Z,23.20
2019-05-30T09:32:17.702Z,23.59
2019-05-30T09:33:17.653Z,23.96
2019-05-30T09:34:17.654Z,23.25
2019-05-30T09:35:17.636Z,24.58
2019-05-30T09:36:17.685Z,25.96
2019-05-30T09:37:17.607Z,26.61
2019-05-30T09:38:17.608Z,27.44
2019-05-30T09:39:17.617Z,27.79
2019-05-30T09:40:17.564Z,26.09
2019-05-30T09:41:17.620Z,25.71
2019-05-30T09:42:17.539Z,27.24
2019-05-30T09:43:17.559Z,28.07
2019-05-30T09:44:17.541Z,28.89
2019-05-30T09:45:17.903Z,28.55
2019-05-30T09:46:17.507Z,28.23
2019-05-30T09:47:17.547Z,31.16
2019-05-30T09:48:17.483Z,31.90
2019-05-30T09:49:17.526Z,36.63
2019-05-30T09:50:17.455Z,35.18
2019-05-30T09:51:17.496Z,37.18
2019-05-30T09:52:17.426Z,37.66
2019-05-30T09:53:17.437Z,35.56
2019-05-30T09:54:17.437Z,37.58
2019-05-30T09:55:17.409Z,37.18
2019-05-30T09:56:17.414Z,36.29
2019-05-30T09:57:17.410Z,38.20
2019-05-30T09:58:17.370Z,36.51
2019-05-30T09:59:18.410Z,37.41
2019-05-30T10:00:17.421Z,36.41
2019-05-30T10:01:17.348Z,36.21
2019-05-30T10:02:17.344Z,37.25
2019-05-30T10:03:17.313Z,37.15
2019-05-30T10:04:18.354Z,37.79
2019-05-30T10:05:17.354Z,39.97
2019-05-30T10:06:29.165Z,36.87
2019-05-30T10:07:18.278Z,42.97
2019-05-30T10:08:17.367Z,37.57
2019-05-30T10:09:17.257Z,37.28
2019-05-30T10:10:17.258Z,41.99
2019-05-30T10:11:17.230Z,42.68
2019-05-30T10:12:17.241Z,42.27
2019-05-30T10:13:17.199Z,38.79
2019-05-30T10:14:17.270Z,44.80
2019-05-30T10:15:17.190Z,40.77
2019-05-30T10:16:17.202Z,37.88
2019-05-30T10:17:17.152Z,38.59
2019-05-30T10:18:17.159Z,41.89
2019-05-30T10:19:17.144Z,37.59
2019-05-30T10:20:17.145Z,39.01
2019-05-30T10:21:17.115Z,39.23
2019-05-30T10:22:17.118Z,39.93
2019-05-30T10:23:17.097Z,39.23
2019-05-30T10:24:17.149Z,41.83
2019-05-30T10:25:17.090Z,42.83
2019-05-30T10:26:17.058Z,44.62
2019-05-30T10:27:17.160Z,39.51
2019-05-30T10:28:17.030Z,40.81
2019-05-30T10:29:17.092Z,40.73
2019-05-30T10:30:17.031Z,40.35
2019-05-30T10:31:17.005Z,40.85
2019-05-30T10:32:17.003Z,41.13
2019-05-30T10:33:16.983Z,41.43
2019-05-30T10:34:17.037Z,41.03
2019-05-30T10:35:16.985Z,39.53
2019-05-30T10:36:19.838Z,40.23
2019-05-30T10:37:16.936Z,38.12
2019-05-30T10:38:19.972Z,39.03
2019-05-30T10:39:16.916Z,40.43
2019-05-30T10:40:16.987Z,40.43
2019-05-30T10:41:16.888Z,39.32
2019-05-30T10:42:16.880Z,41.01
2019-05-30T10:43:17.971Z,39.51
2019-05-30T10:44:16.871Z,40.11
2019-05-30T10:45:16.942Z,43.10
2019-05-30T10:46:16.842Z,39.97
2019-05-30T10:47:16.832Z,39.67
2019-05-30T10:48:20.406Z,40.97
2019-05-30T10:49:16.804Z,42.57
2019-05-30T10:50:16.879Z,41.27
2019-05-30T10:51:16.775Z,43.27
2019-05-30T10:52:16.766Z,39.69
2019-05-30T10:53:16.827Z,42.49
2019-05-30T10:54:16.757Z,42.38
2019-05-30T10:55:16.808Z,39.67
2019-05-30T10:56:16.739Z,39.29
2019-05-30T10:57:16.721Z,40.09
2019-05-30T10:58:16.711Z,42.60
2019-05-30T10:59:16.740Z,45.78
2019-05-30T11:00:16.702Z,42.66
2019-05-30T11:01:16.772Z,40.55
2019-05-30T11:02:16.663Z,40.15
2019-05-30T11:03:16.706Z,38.15
2019-05-30T11:04:16.634Z,41.66
2019-05-30T11:05:16.645Z,40.85
2019-05-30T11:06:16.646Z,38.67
2019-05-30T11:07:16.688Z,39.18
2019-05-30T11:08:16.606Z,38.99
2019-05-30T11:09:16.628Z,40.29
2019-05-30T11:10:16.579Z,42.10
2019-05-30T11:11:17.599Z,43.38
2019-05-30T11:12:16.552Z,40.75
2019-05-30T11:13:16.548Z,38.45
2019-05-30T11:14:16.562Z,37.46
2019-05-30T11:15:16.513Z,40.07
2019-05-30T11:16:16.543Z,41.77
2019-05-30T11:17:16.492Z,38.57
2019-05-30T11:18:16.498Z,39.99
2019-05-30T11:19:16.474Z,39.49
2019-05-30T11:20:16.599Z,42.99
2019-05-30T11:21:16.476Z,40.29
2019-05-30T11:22:16.518Z,39.71
2019-05-30T11:23:16.438Z,39.40
2019-05-30T11:24:16.427Z,41.01
2019-05-30T11:25:16.509Z,40.91
2019-05-30T11:26:16.410Z,41.99
2019-05-30T11:27:16.449Z,40.19
2019-05-30T11:28:16.373Z,40.49
2019-05-30T11:29:16.360Z,40.29
2019-05-30T11:30:16.351Z,40.59
2019-05-30T11:31:16.481Z,42.19
2019-05-30T11:32:16.335Z,40.69
2019-05-30T11:33:16.363Z,39.59
2019-05-30T11:34:16.434Z,40.79
2019-05-30T11:35:16.306Z,41.79
2019-05-30T11:36:16.416Z,41.89
2019-05-30T11:37:18.818Z,43.60
2019-05-30T11:38:16.297Z,39.59
2019-05-30T11:39:16.368Z,39.69
2019-05-30T11:40:16.243Z,42.27
2019-05-30T11:41:16.360Z,44.48
2019-05-30T11:42:16.219Z,40.27
2019-05-30T11:43:16.243Z,39.18
2019-05-30T11:44:16.201Z,40.41
2019-05-30T11:45:16.191Z,40.81
2019-05-30T11:46:16.306Z,40.81
2019-05-30T11:47:16.173Z,40.61
2019-05-30T11:48:16.174Z,39.59
2019-05-30T11:49:16.150Z,42.18
2019-05-30T11:50:16.135Z,42.05
2019-05-30T11:51:16.116Z,42.76
2019-05-30T11:52:16.198Z,40.85
2019-05-30T11:53:16.097Z,40.15
2019-05-30T11:54:17.117Z,40.15
2019-05-30T11:55:16.081Z,40.75
2019-05-30T11:56:17.148Z,42.03
2019-05-30T11:57:16.080Z,42.05
2019-05-30T11:58:19.363Z,44.04
2019-05-30T11:59:16.041Z,39.35
2019-05-30T12:00:16.023Z,41.99
2019-05-30T12:01:16.009Z,40.99
2019-05-30T12:02:18.033Z,40.21
2019-05-30T12:03:15.984Z,41.79
2019-05-30T12:04:16.076Z,40.79
2019-05-30T12:05:15.967Z,43.30
2019-05-30T12:06:15.966Z,41.99
2019-05-30T12:07:16.036Z,41.79
2019-05-30T12:08:15.936Z,42.60
2019-05-30T12:09:16.018Z,46.58
2019-05-30T12:10:15.918Z,46.78
2019-05-30T12:11:15.912Z,42.35
2019-05-30T12:12:15.900Z,42.76
2019-05-30T12:13:16.913Z,43.24
2019-05-30T12:14:15.865Z,40.23
2019-05-30T12:15:15.921Z,41.66
2019-05-30T12:16:15.893Z,40.15
2019-05-30T12:17:15.842Z,42.46
2019-05-30T12:18:15.933Z,41.85
2019-05-30T12:19:15.814Z,42.66
2019-05-30T12:20:15.865Z,40.75
2019-05-30T12:21:15.795Z,38.85
2019-05-30T12:22:15.865Z,40.09
2019-05-30T12:23:15.777Z,42.77
2019-05-30T12:24:15.837Z,40.97
2019-05-30T12:25:15.754Z,38.55
2019-05-30T12:26:15.729Z,38.65
2019-05-30T12:27:15.749Z,39.45
2019-05-30T12:28:15.798Z,39.23
2019-05-30T12:29:15.701Z,40.81
2019-05-30T12:30:15.756Z,40.11
2019-05-30T12:31:15.695Z,41.02
2019-05-30T12:32:16.703Z,40.41
2019-05-30T12:33:15.684Z,41.09
2019-05-30T12:34:15.724Z,39.00
2019-05-30T12:35:15.634Z,39.11
2019-05-30T12:36:15.645Z,40.71
2019-05-30T12:37:15.605Z,40.00
2019-05-30T12:38:15.627Z,39.89
2019-05-30T12:39:15.587Z,42.49
2019-05-30T12:40:15.629Z,41.89
2019-05-30T12:41:15.569Z,40.97
2019-05-30T12:42:15.550Z,41.38
2019-05-30T12:43:15.571Z,38.70
2019-05-30T12:44:15.605Z,37.70
2019-05-30T12:45:15.531Z,39.22
2019-05-30T12:46:15.543Z,41.91
2019-05-30T12:47:15.514Z,41.61
2019-05-30T12:48:15.614Z,40.52
2019-05-30T12:49:15.474Z,39.31
2019-05-30T12:50:16.776Z,39.91
2019-05-30T12:51:15.466Z,39.41
2019-05-30T12:52:15.547Z,39.11